Nearby METAR Reports

 

KSJC - San Jose, California, USA
Distance from station: NE 14km
Updated: 26 April 2018 09:53 PDT
Partly cloudy
Partly cloudy
 Wind from varies
Wind: varies 6 km/h
Temperature: 14°C
Dew Point: 9°C
Humidity: 72%
Barometer: 1017.6 hPa
Clouds: Partly cloudy
Visibility: 13 km
Cloud details: Few Clouds 30 m
Few Clouds 488 m
Partly cloudy 701 m
2018/04/26 16:53 KSJC 261653Z VRB03KT 8SM FEW001 FEW016 SCT023 14/09 A3005 RMK AO2 SLP174 T01440089 $
KNUQ - Moffett Nas/Mtn, California, USA
Distance from station: N 14km
Updated: 26 April 2018 09:56 PDT
Overcast
Overcast
 Wind from varies
Wind: varies 7 km/h
Temperature: 14°C
Dew Point: 9°C
Humidity: 72%
Barometer: 1017.9 hPa
Clouds: Overcast
Visibility: 16 km
Cloud details: Overcast 640 m
2018/04/26 16:56 KNUQ 261656Z VRB04KT 10SM OVC021 14/09 A3006 RMK AO2 SLP180 T01440089
 
KPAO - Palo Alto, California, USA
Distance from station: NNW 23km
Updated: 26 April 2018 09:47 PDT
Mostly cloudy
Mostly cloudy
 Wind from N
Wind: N 13 km/h
Barometer: 1017.6 hPa
Clouds: Mostly cloudy
Visibility: 16 km
Cloud details: Mostly cloudy 579 m
2018/04/26 16:47 KPAO 261647Z 35007KT 10SM BKN019 A3005
KRHV - San Jose/Reid, California, USA
Distance from station: ENE 19km
Updated: 26 April 2018 09:49 PDT
Partly cloudy
Partly cloudy
 Wind from varies
Wind: varies 9 km/h
Temperature: 17°C
Dew Point: 9°C
Humidity: 59%
Barometer: 1016.9 hPa
Clouds: Partly cloudy
Visibility: 13 km
Cloud details: Partly cloudy 701 m
2018/04/26 16:49 KRHV 261649Z VRB05KT 8SM SCT023 17/09 A3003
 
KOAK - Oakland, California, USA
Distance from station: NNW 50km
Updated: 26 April 2018 09:53 PDT
Mostly cloudy
Mostly cloudy
 Wind from W
Wind: W 19 km/h
Temperature: 13°C
Dew Point: 8°C
Humidity: 72%
Barometer: 1017.9 hPa
Clouds: Mostly cloudy
Visibility: 16 km
Cloud details: Mostly cloudy 610 m
2018/04/26 16:53 KOAK 261653Z 26010KT 10SM BKN020 13/08 A3006 RMK AO2 SLP180 T01280078
KSQL - San Carlos Airpo, California, USA
Distance from station: NW 34km
Updated: 26 April 2018 09:47 PDT
Mostly cloudy
Mostly cloudy
 Wind from W
Wind: W 15 km/h
Temperature: 13°C
Dew Point: 7°C
Humidity: 67%
Barometer: 1017.9 hPa
Clouds: Mostly cloudy
Visibility: 16 km
Cloud details: Mostly cloudy 671 m
2018/04/26 16:47 KSQL 261647Z 28008KT 10SM BKN022 13/07 A3006
 
KSFO - San Francisco, California, USA
Distance from station: NW 49km
Updated: 26 April 2018 09:56 PDT
Mostly cloudy
Mostly cloudy
 Wind from W
Wind: W 19 km/h
Temperature: 13°C
Dew Point: 7°C
Humidity: 67%
Barometer: 1017.9 hPa
Clouds: Mostly cloudy
Visibility: 16 km
Cloud details: Few Clouds 549 m
Mostly cloudy 640 m
2018/04/26 16:56 KSFO 261656Z 28010KT 10SM FEW018 BKN021 13/07 A3006 RMK AO2 SLP178 T01330067
KE16 - San Martin, California, USA
Distance from station: ESE 43km
Updated: 26 April 2018 09:55 PDT
Overcast
Overcast
 Wind from calm
Wind: Calm
Temperature: 12°C
Dew Point: 9°C
Humidity: 82%
Barometer: 1018.6 hPa
Clouds: Overcast
Visibility: 14 km
Cloud details: Overcast 335 m
2018/04/26 16:55 KE16 261655Z AUTO 00000KT 9SM OVC011 12/09 A3008 RMK AO2
 
KWVI - Watsonville, California, USA
Distance from station: SSE 44km
Updated: 26 April 2018 09:53 PDT
Overcast
Overcast
 Wind from calm
Wind: Calm
Temperature: 12°C
Dew Point: 8°C
Humidity: 77%
Barometer: 1018.3 hPa
Clouds: Overcast
Visibility: 13 km
Cloud details: Overcast 518 m
2018/04/26 16:53 KWVI 261653Z AUTO 00000KT 8SM OVC017 12/08 A3007 RMK AO2 SLP181 T01220083
KHAF - Half Moon Bay, California, USA
Distance from station: WNW 50km
Updated: 26 April 2018 10:00 PDT
Overcast
Overcast
 Wind from WNW
Wind: WNW 9 km/h
Temperature: 12°C
Dew Point: 8°C
Humidity: 77%
Barometer: 1018.3 hPa
Clouds: Overcast
Visibility: 14 km
Cloud details: Overcast 549 m
2018/04/26 17:00 KHAF 261700Z AUTO 30005KT 9SM OVC018 12/08 A3007 RMK AO2
 
KHWD - Hayward, California, USA
Distance from station: N 44km
Updated: 26 April 2018 09:54 PDT
Overcast
Overcast
 Wind from NW
Wind: NW 15 km/h
Temperature: 13°C
Dew Point: 7°C
Humidity: 67%
Barometer: 1017.9 hPa
Clouds: Overcast
Visibility: 16 km
Cloud details: Overcast 549 m
2018/04/26 16:54 KHWD 261654Z 31008KT 10SM OVC018 13/07 A3006 RMK AO2 SLP187 T01280067
KLVK - Livermore, California, USA
Distance from station: NNE 51km
Updated: 26 April 2018 09:53 PDT
Few Clouds
Few Clouds
 Wind from NW
Wind: NW 11 km/h
Temperature: 14°C
Dew Point: 9°C
Humidity: 72%
Barometer: 1016.6 hPa
Clouds: Few Clouds
Visibility: 16 km
Cloud details: Few Clouds 549 m
2018/04/26 16:53 KLVK 261653Z 31006KT 10SM FEW018 14/09 A3002 RMK AO2 SLP166 T01440094